createdAt,value
2022-08-04T00:01:51.045Z,47.70
2022-08-04T00:04:28.118Z,51.15
2022-08-04T00:07:05.567Z,58.47
2022-08-04T00:09:42.970Z,50.42
2022-08-04T00:12:14.359Z,52.03
2022-08-04T00:14:49.083Z,49.92
2022-08-04T00:17:22.135Z,61.28
2022-08-04T00:19:55.024Z,53.72
2022-08-04T00:22:29.382Z,53.75
2022-08-04T00:24:58.785Z,50.58
2022-08-04T00:27:30.158Z,50.20
2022-08-04T00:29:58.971Z,55.53
2022-08-04T00:32:34.152Z,61.60
2022-08-04T00:35:04.667Z,44.50
2022-08-04T00:37:35.370Z,54.00
2022-08-04T00:40:12.874Z,58.25
2022-08-04T00:42:58.208Z,53.00
2022-08-04T00:46:11.678Z,53.10
2022-08-04T00:49:01.012Z,60.17
2022-08-04T00:51:45.593Z,55.60
2022-08-04T00:54:27.849Z,51.90
2022-08-04T00:57:28.472Z,60.33
2022-08-04T01:00:12.167Z,51.75
2022-08-04T01:02:51.951Z,59.95
2022-08-04T01:05:28.384Z,56.05
2022-08-04T01:08:21.917Z,55.72
2022-08-04T01:11:04.399Z,60.88
2022-08-04T01:14:01.362Z,60.13
2022-08-04T01:16:33.902Z,53.88
2022-08-04T01:19:05.451Z,59.55
2022-08-04T01:22:09.138Z,63.60
2022-08-04T01:25:02.313Z,65.18
2022-08-04T01:27:51.016Z,59.80
2022-08-04T01:30:21.236Z,53.80
2022-08-04T01:32:54.053Z,63.55
2022-08-04T01:35:48.269Z,55.83
2022-08-04T01:38:21.943Z,51.90
2022-08-04T01:40:55.052Z,55.45
2022-08-04T01:43:24.925Z,64.35
2022-08-04T01:46:00.687Z,54.20
2022-08-04T01:48:30.303Z,59.60
2022-08-04T01:51:01.149Z,61.88
2022-08-04T01:53:32.950Z,68.63
2022-08-04T01:56:03.785Z,73.63
2022-08-04T01:58:34.025Z,59.45
2022-08-04T02:01:08.266Z,62.45
2022-08-04T02:04:20.160Z,56.72
2022-08-04T02:06:35.812Z,63.85
2022-08-04T02:09:13.722Z,60.33
2022-08-04T02:11:44.332Z,59.75
2022-08-04T02:14:36.045Z,62.53
2022-08-04T02:17:14.796Z,63.00
2022-08-04T02:20:02.800Z,63.00
2022-08-04T02:22:35.345Z,54.30
2022-08-04T02:25:09.156Z,52.33
2022-08-04T02:27:59.158Z,52.92
2022-08-04T02:30:35.714Z,41.15
2022-08-04T02:33:09.018Z,42.33
2022-08-04T02:35:40.057Z,44.42
2022-08-04T02:38:25.551Z,48.50
2022-08-04T02:41:00.406Z,48.45
2022-08-04T02:43:50.679Z,51.10
2022-08-04T02:46:21.376Z,44.75
2022-08-04T02:48:53.239Z,51.40
2022-08-04T02:51:25.403Z,49.22
2022-08-04T02:53:57.385Z,48.30
2022-08-04T02:56:27.550Z,49.03
2022-08-04T02:59:05.021Z,46.13
2022-08-04T03:01:34.548Z,46.40
2022-08-04T03:04:24.181Z,49.45
2022-08-04T03:07:32.489Z,41.30
2022-08-04T03:10:47.666Z,37.05
2022-08-04T03:13:40.172Z,29.70
2022-08-04T03:16:34.428Z,32.88
2022-08-04T03:19:34.950Z,29.55
2022-08-04T03:22:49.143Z,32.15
2022-08-04T03:26:21.455Z,33.60
2022-08-04T03:29:35.958Z,28.08
2022-08-04T03:32:35.062Z,30.00
2022-08-04T03:35:25.111Z,29.95
2022-08-04T03:38:29.914Z,31.33
2022-08-04T03:41:51.639Z,30.60
2022-08-04T03:44:53.483Z,27.50
2022-08-04T03:48:11.196Z,27.83
2022-08-04T03:51:35.833Z,28.83
2022-08-04T03:54:31.127Z,33.08
2022-08-04T03:57:44.064Z,50.75
2022-08-04T04:00:15.573Z,76.20
2022-08-04T04:03:28.734Z,72.07
2022-08-04T04:06:40.379Z,99.78
2022-08-04T04:09:57.818Z,65.18
2022-08-04T04:13:11.117Z,80.68
2022-08-04T04:16:00.912Z,180.02
2022-08-04T04:18:53.454Z,74.25
2022-08-04T04:21:56.680Z,69.45
2022-08-04T04:24:49.861Z,77.75
2022-08-04T04:27:34.402Z,92.53
2022-08-04T04:30:07.611Z,60.10
2022-08-04T04:33:09.266Z,81.63
2022-08-04T04:35:43.585Z,68.78
2022-08-04T04:38:47.575Z,104.03
2022-08-04T04:41:34.075Z,95.88
2022-08-04T04:44:39.100Z,87.38
2022-08-04T04:47:15.826Z,70.25
2022-08-04T04:49:52.810Z,64.75
2022-08-04T04:52:30.132Z,78.57
2022-08-04T04:55:06.030Z,120.28
2022-08-04T04:57:53.839Z,170.95
2022-08-04T05:00:26.822Z,217.88
2022-08-04T05:03:13.651Z,246.48
2022-08-04T05:06:20.525Z,170.80
2022-08-04T05:09:11.734Z,252.40
2022-08-04T05:12:02.534Z,296.15
2022-08-04T05:14:41.941Z,291.63
2022-08-04T05:17:18.409Z,271.60
2022-08-04T05:20:02.098Z,159.88
2022-08-04T05:22:37.249Z,250.43
2022-08-04T05:25:10.401Z,246.70
2022-08-04T05:27:43.140Z,282.75
2022-08-04T05:30:13.212Z,295.33
2022-08-04T05:32:59.191Z,306.15
2022-08-04T05:35:37.441Z,354.92
2022-08-04T05:38:24.966Z,364.08
2022-08-04T05:40:56.141Z,284.15
2022-08-04T05:43:28.200Z,312.77
2022-08-04T05:45:58.034Z,341.52
2022-08-04T05:48:27.729Z,440.23
2022-08-04T05:51:00.920Z,455.80
2022-08-04T05:53:30.721Z,433.75
2022-08-04T05:56:00.814Z,395.02
2022-08-04T05:58:32.008Z,398.95
2022-08-04T06:01:02.187Z,341.27
2022-08-04T06:03:32.406Z,352.33
2022-08-04T06:06:02.335Z,146.55
2022-08-04T06:08:32.235Z,131.27
2022-08-04T06:11:06.347Z,109.47
2022-08-04T06:13:48.416Z,101.65
2022-08-04T06:16:29.988Z,103.32
2022-08-04T06:19:59.898Z,97.85
2022-08-04T06:21:57.021Z,462.90
2022-08-04T06:24:28.959Z,118.68
2022-08-04T06:26:58.743Z,91.50
2022-08-04T06:29:34.813Z,103.60
2022-08-04T06:32:33.762Z,98.28
2022-08-04T06:35:07.865Z,113.28
2022-08-04T06:37:42.828Z,152.18
2022-08-04T06:40:30.535Z,187.85
2022-08-04T06:43:02.607Z,178.98
2022-08-04T06:45:34.957Z,211.30
2022-08-04T06:48:05.057Z,227.90
2022-08-04T06:51:25.815Z,229.52
2022-08-04T06:53:24.401Z,273.88
2022-08-04T06:55:54.693Z,307.48
